Bei Facebook empfehlenBei Twitter postenGoogle plusPinterest

Das Wetter im Erzgebirge am 08.03.2015

Wetter und Klima am 08.03.2015 Holzhau im Erzgebirge (630m ü.NN)
Letzte gemessene Temperatur und Uhrzeit der Messung23:45:00 Uhr3.90 °C
Temperatur (Maximum / Höchstwert) und Uhrzeit der Messung14:45:00 Uhr12.30 °C
Temperatur (Minimum / Tiefstwert) und Uhrzeit der Messung06:00:000.40 °C
Errechneter Absolutwert der Temperaturschwankungen zwischen Tmin und Tmax des Tages11.90 K
Errechnete Tagesmitteltemperatur6.20104 °C
Gesamt - Niederschlag des Tages (in flüssiger Form)0.00 Liter / m²
Luftdruck (Maximum / Höchstwert) und Zeitpunkt der Messung01:00:00 Uhr1026.20 hPa
Luftdruck (Minimum / Tiefstwert) und Zeitpunkt der Messung22:45:00 Uhr1021.60 hPa
Errechneter Absolutwert der Luftdruckschwankungen des Tages4.60 hPa
Höchste gemessene Windgeschwindigkeit und Uhrzeit der Messung11:30:00 Uhr10.80 km/h
Errechnete Windhäufigkeit in Relation zu den Messwerten des Tages5.20833 %
Niedrigste Windkühle (Windchill) und Zeitpunkt der Messung06:00:00 Uhr0.40 °C
Taupunkt (Maximum / Höchstwert) und Uhrzeit der Messung10:30:00 Uhr2.60 °C
Taupunkt (Minimum / Tiefstwert) und Uhrzeit der Messung23:45:00-3.10 °C
Anzahl der automatisch eingelesenen Messwerte 96

Detaillierte Wetter- und Klima- Messwerte für den 08.03.2015 in Holzhau im Erzgebirge (630m ü.NN)
ZeitTemperaturLuftdruckRel. LuftfeuchteWindWindrichtungWindchillTaupunktNiederschlag l/m²
23:45:003.90 °C1021.70 hPa60.00 %-3.10 °C 
23:30:004.30 °C1021.70 hPa60.00 %-2.80 °C 
23:15:004.40 °C1021.90 hPa60.00 %-2.70 °C 
23:00:004.40 °C1021.70 hPa61.00 %-2.40 °C 
22:45:004.20 °C1021.60 hPa63.00 %-2.20 °C 
22:30:004.30 °C1021.80 hPa63.00 %-2.10 °C 
22:15:004.30 °C1021.70 hPa64.00 %-1.90 °C 
22:00:004.10 °C1021.90 hPa64.00 %-2.10 °C 
21:45:004.50 °C1021.70 hPa63.00 %-1.90 °C 
21:30:004.70 °C1021.70 hPa63.00 %-1.70 °C 
21:15:004.90 °C1021.70 hPa63.00 %-1.50 °C 
21:00:005.00 °C1021.90 hPa64.00 %-1.20 °C 
20:45:005.30 °C1021.90 hPa65.00 %-0.70 °C 
20:30:005.30 °C1021.80 hPa65.00 %-0.70 °C 
20:15:005.40 °C1022.00 hPa65.00 %-0.60 °C 
20:00:005.40 °C1022.00 hPa65.00 %-0.60 °C 
19:45:005.60 °C1022.00 hPa65.00 %-0.40 °C 
19:30:005.60 °C1022.10 hPa65.00 %-0.40 °C 
19:15:005.50 °C1022.10 hPa66.00 %-0.30 °C 
19:00:005.30 °C1021.90 hPa65.00 %-0.70 °C 
18:45:005.50 °C1021.90 hPa65.00 %-0.50 °C 
18:30:005.80 °C1022.20 hPa64.00 %-0.50 °C 
18:15:006.10 °C1022.40 hPa62.00 %-0.60 °C 
18:00:006.80 °C1022.30 hPa60.00 %-0.40 °C 
17:45:007.60 °C1022.20 hPa58.00 %-0.10 °C 
17:30:008.80 °C1022.20 hPa55.00 %0.30 °C 
17:15:009.80 °C1022.20 hPa52.00 %0.40 °C 
17:00:0010.60 °C1022.30 hPa51.00 %0.90 °C 
16:45:0011.30 °C1022.40 hPa49.00 %1.00 °C 
16:30:0011.40 °C1022.40 hPa48.00 %0.80 °C 
16:15:0011.80 °C1022.50 hPa47.00 %0.90 °C 
16:00:0011.60 °C1022.70 hPa46.00 %0.40 °C 
15:45:0011.80 °C1022.70 hPa46.00 %0.60 °C 
15:30:0011.90 °C1023.00 hPa45.00 %0.40 °C 
15:15:0011.60 °C1023.10 hPa46.00 %0.40 °C 
15:00:0012.20 °C1023.30 hPa45.00 %0.60 °C 
14:45:0012.30 °C1023.50 hPa45.00 %0.70 °C 
14:30:0012.30 °C1023.80 hPa46.00 %1.00 °C 
14:15:0012.00 °C1024.00 hPa45.00 %0.50 °C 
14:00:0011.80 °C1024.10 hPa49.00 %1.40 °C 
13:45:0011.10 °C1024.20 hPa50.00 %5.76 km/hSSO10.80 °C1.10 °C 
13:30:0010.60 °C1024.30 hPa51.00 %0.90 °C 
13:15:0011.10 °C1024.60 hPa50.00 %8.28 km/hSW10.20 °C1.10 °C 
13:00:0010.80 °C1024.70 hPa50.00 %0.80 °C 
12:45:0010.10 °C1024.70 hPa51.00 %0.40 °C 
12:30:0010.70 °C1024.90 hPa49.00 %7.92 km/hS9.80 °C0.40 °C 
12:15:0011.10 °C1025.00 hPa49.00 %0.80 °C 
12:00:0011.30 °C1024.90 hPa50.00 %9.36 km/hSSW10.30 °C1.30 °C 
11:45:0010.90 °C1024.80 hPa52.00 %1.40 °C 
11:30:0010.50 °C1024.90 hPa51.00 %10.80 km/hSSO9.10 °C0.80 °C 
11:15:0011.10 °C1025.20 hPa51.00 %1.40 °C 
11:00:0011.40 °C1025.10 hPa51.00 %1.60 °C 
10:45:0011.50 °C1025.00 hPa52.00 %2.00 °C 
10:30:0011.30 °C1024.80 hPa55.00 %2.60 °C 
10:15:0010.30 °C1024.90 hPa58.00 %2.40 °C 
10:00:009.90 °C1024.80 hPa59.00 %2.30 °C 
09:45:009.30 °C1024.80 hPa62.00 %2.40 °C 
09:30:008.70 °C1024.90 hPa65.00 %2.50 °C 
09:15:007.70 °C1024.90 hPa68.00 %2.20 °C 
09:00:006.80 °C1025.00 hPa70.00 %1.70 °C 
08:45:006.10 °C1024.90 hPa72.00 %1.40 °C 
08:30:005.30 °C1024.80 hPa73.00 %0.90 °C 
08:15:004.60 °C1024.80 hPa75.00 %0.60 °C 
08:00:004.10 °C1024.90 hPa77.00 %0.40 °C 
07:45:003.50 °C1024.80 hPa79.00 %0.20 °C 
07:30:003.00 °C1024.70 hPa80.00 %-0.10 °C 
07:15:002.70 °C1024.70 hPa81.00 %-0.20 °C 
07:00:002.50 °C1024.70 hPa82.00 %-0.30 °C 
06:45:002.30 °C1025.10 hPa83.00 %-0.30 °C 
06:30:001.90 °C1025.10 hPa84.00 %-0.50 °C 
06:15:001.30 °C1025.20 hPa86.00 %-0.80 °C 
06:00:000.40 °C1025.00 hPa86.00 %-1.70 °C 
05:45:000.60 °C1025.20 hPa85.00 %-1.60 °C 
05:30:000.90 °C1025.20 hPa85.00 %-1.30 °C 
05:15:001.50 °C1025.20 hPa85.00 %-0.70 °C 
05:00:001.60 °C1025.40 hPa85.00 %-0.60 °C 
04:45:001.50 °C1025.40 hPa85.00 %-0.70 °C 
04:30:001.40 °C1025.20 hPa85.00 %-0.80 °C 
04:15:001.40 °C1025.40 hPa84.00 %-1.00 °C 
04:00:001.70 °C1025.50 hPa83.00 %-0.90 °C 
03:45:001.90 °C1025.60 hPa83.00 %-0.70 °C 
03:30:002.10 °C1025.80 hPa83.00 %-0.50 °C 
03:15:002.40 °C1025.80 hPa82.00 %-0.40 °C 
03:00:002.30 °C1025.90 hPa83.00 %-0.30 °C 
02:45:002.30 °C1025.90 hPa82.00 %-0.40 °C 
02:30:002.40 °C1026.00 hPa82.00 %-0.40 °C 
02:15:002.60 °C1026.10 hPa81.00 %-0.30 °C 
02:00:002.90 °C1026.10 hPa81.00 %0.00 °C 
01:45:002.90 °C1026.10 hPa81.00 %0.00 °C 
01:30:002.90 °C1025.90 hPa81.00 %0.00 °C 
01:15:002.90 °C1026.00 hPa81.00 %0.00 °C 
01:00:002.90 °C1026.20 hPa81.00 %0.00 °C 
00:45:003.00 °C1026.10 hPa81.00 %0.10 °C 
00:30:003.00 °C1026.20 hPa82.00 %0.20 °C 
00:15:002.70 °C1026.10 hPa84.00 %0.30 °C 
00:00:002.20 °C1026.20 hPa86.00 %0.10 °C 

Permanenter Link zu dieser Seite: Wetter im Erzgebirge am 08.03.2015
Performance-Info: Die Erstellung der Seite / Statistik(en) / Tabelle(n) erforderte 5 Datenbankserver-Abfrage(n) und dauerte 96 Millisekunden. (Dieser Messwert ist von der Gesamt-Auslastung des Servers abhängig.)
Erzgebirge - Wetter | Erzgebirge - Wetter (Mobilgeräte) | Komplette Klimadatenbank